sensor_id;sensor_type;location;lat;lon;timestamp;temperature;humidity
20881;DHT22;10600;53.096;8.802;2023-04-24T00:00:26;12.00;99.90
20881;DHT22;10600;53.096;8.802;2023-04-24T00:01:27;12.00;99.90
20881;DHT22;10600;53.096;8.802;2023-04-24T00:02:29;12.10;99.90
20881;DHT22;10600;53.096;8.802;2023-04-24T00:03:30;12.00;99.90
20881;DHT22;10600;53.096;8.802;2023-04-24T00:04:31;12.10;99.90
20881;DHT22;10600;53.096;8.802;2023-04-24T00:05:32;12.10;99.90
20881;DHT22;10600;53.096;8.802;2023-04-24T00:06:33;12.10;99.90
20881;DHT22;10600;53.096;8.802;2023-04-24T00:07:34;12.10;99.90
20881;DHT22;10600;53.096;8.802;2023-04-24T00:08:35;12.10;99.90
20881;DHT22;10600;53.096;8.802;2023-04-24T00:09:36;12.10;99.90
20881;DHT22;10600;53.096;8.802;2023-04-24T00:10:37;12.10;99.90
20881;DHT22;10600;53.096;8.802;2023-04-24T00:11:38;12.10;99.90
20881;DHT22;10600;53.096;8.802;2023-04-24T00:12:38;12.10;99.90
20881;DHT22;10600;53.096;8.802;2023-04-24T00:13:39;12.10;99.90
20881;DHT22;10600;53.096;8.802;2023-04-24T00:14:40;12.10;99.90
20881;DHT22;10600;53.096;8.802;2023-04-24T00:15:40;12.10;99.90
20881;DHT22;10600;53.096;8.802;2023-04-24T00:16:41;12.10;99.90
20881;DHT22;10600;53.096;8.802;2023-04-24T00:17:42;12.10;99.90
20881;DHT22;10600;53.096;8.802;2023-04-24T00:18:42;12.10;99.90
20881;DHT22;10600;53.096;8.802;2023-04-24T00:19:43;12.10;99.90
20881;DHT22;10600;53.096;8.802;2023-04-24T00:20:43;12.10;99.90
20881;DHT22;10600;53.096;8.802;2023-04-24T00:21:44;12.10;99.90
20881;DHT22;10600;53.096;8.802;2023-04-24T00:22:45;12.10;99.90
20881;DHT22;10600;53.096;8.802;2023-04-24T00:23:46;12.10;99.90
20881;DHT22;10600;53.096;8.802;2023-04-24T00:24:46;12.10;99.90
20881;DHT22;10600;53.096;8.802;2023-04-24T00:25:47;12.10;99.90
20881;DHT22;10600;53.096;8.802;2023-04-24T00:26:47;12.10;99.90
20881;DHT22;10600;53.096;8.802;2023-04-24T00:27:48;12.00;99.90
20881;DHT22;10600;53.096;8.802;2023-04-24T00:28:49;12.00;99.90
20881;DHT22;10600;53.096;8.802;2023-04-24T00:29:50;12.00;99.90
20881;DHT22;10600;53.096;8.802;2023-04-24T00:30:50;12.00;99.90
20881;DHT22;10600;53.096;8.802;2023-04-24T00:31:51;12.00;99.90
20881;DHT22;10600;53.096;8.802;2023-04-24T00:32:51;12.00;99.90
20881;DHT22;10600;53.096;8.802;2023-04-24T00:33:52;12.00;99.90
20881;DHT22;10600;53.096;8.802;2023-04-24T00:34:53;12.00;99.90
20881;DHT22;10600;53.096;8.802;2023-04-24T00:35:53;12.00;99.90
20881;DHT22;10600;53.096;8.802;2023-04-24T00:36:54;12.00;99.90
20881;DHT22;10600;53.096;8.802;2023-04-24T00:37:55;12.00;99.90
20881;DHT22;10600;53.096;8.802;2023-04-24T00:38:56;12.00;99.90
20881;DHT22;10600;53.096;8.802;2023-04-24T00:39:56;12.00;99.90
20881;DHT22;10600;53.096;8.802;2023-04-24T00:40:57;12.00;99.90
20881;DHT22;10600;53.096;8.802;2023-04-24T00:41:57;12.00;99.90
20881;DHT22;10600;53.096;8.802;2023-04-24T00:42:58;12.00;99.90
20881;DHT22;10600;53.096;8.802;2023-04-24T00:43:59;12.00;99.90
20881;DHT22;10600;53.096;8.802;2023-04-24T00:45:01;11.90;99.90
20881;DHT22;10600;53.096;8.802;2023-04-24T00:46:03;11.90;99.90
20881;DHT22;10600;53.096;8.802;2023-04-24T00:47:04;12.00;99.90
20881;DHT22;10600;53.096;8.802;2023-04-24T00:48:05;12.00;99.90
20881;DHT22;10600;53.096;8.802;2023-04-24T00:49:06;12.00;99.90
20881;DHT22;10600;53.096;8.802;2023-04-24T00:50:07;12.00;99.90
20881;DHT22;10600;53.096;8.802;2023-04-24T00:51:08;12.00;99.90
20881;DHT22;10600;53.096;8.802;2023-04-24T00:52:09;12.00;99.90
20881;DHT22;10600;53.096;8.802;2023-04-24T00:53:11;12.00;99.90
20881;DHT22;10600;53.096;8.802;2023-04-24T00:54:13;12.00;99.90
20881;DHT22;10600;53.096;8.802;2023-04-24T00:55:13;12.00;99.90
20881;DHT22;10600;53.096;8.802;2023-04-24T00:56:14;12.00;99.90
20881;DHT22;10600;53.096;8.802;2023-04-24T00:57:15;12.00;99.90
20881;DHT22;10600;53.096;8.802;2023-04-24T00:58:16;11.90;99.90
20881;DHT22;10600;53.096;8.802;2023-04-24T00:59:17;12.00;99.90
20881;DHT22;10600;53.096;8.802;2023-04-24T01:00:18;11.90;99.90
20881;DHT22;10600;53.096;8.802;2023-04-24T01:01:20;11.90;99.90
20881;DHT22;10600;53.096;8.802;2023-04-24T01:02:22;11.90;99.90
20881;DHT22;10600;53.096;8.802;2023-04-24T01:03:26;11.90;99.90
20881;DHT22;10600;53.096;8.802;2023-04-24T01:04:28;11.80;99.90
20881;DHT22;10600;53.096;8.802;2023-04-24T01:05:29;11.80;99.90
20881;DHT22;10600;53.096;8.802;2023-04-24T01:06:30;11.80;99.90
20881;DHT22;10600;53.096;8.802;2023-04-24T01:07:31;11.80;99.90
20881;DHT22;10600;53.096;8.802;2023-04-24T01:08:32;11.80;99.90
20881;DHT22;10600;53.096;8.802;2023-04-24T01:09:35;11.70;99.90
20881;DHT22;10600;53.096;8.802;2023-04-24T01:10:36;11.70;99.90
20881;DHT22;10600;53.096;8.802;2023-04-24T01:11:41;11.70;99.90
20881;DHT22;10600;53.096;8.802;2023-04-24T01:12:42;11.70;99.90
20881;DHT22;10600;53.096;8.802;2023-04-24T01:13:42;11.70;99.90
20881;DHT22;10600;53.096;8.802;2023-04-24T01:14:43;11.70;99.90
20881;DHT22;10600;53.096;8.802;2023-04-24T01:15:45;11.60;99.90
20881;DHT22;10600;53.096;8.802;2023-04-24T01:16:45;11.60;99.90
20881;DHT22;10600;53.096;8.802;2023-04-24T01:17:46;11.60;99.90
20881;DHT22;10600;53.096;8.802;2023-04-24T01:18:47;11.60;99.90
20881;DHT22;10600;53.096;8.802;2023-04-24T01:19:47;11.50;99.90
20881;DHT22;10600;53.096;8.802;2023-04-24T01:20:51;11.50;99.90
20881;DHT22;10600;53.096;8.802;2023-04-24T01:21:53;11.50;99.90
20881;DHT22;10600;53.096;8.802;2023-04-24T01:22:57;11.50;99.90
20881;DHT22;10600;53.096;8.802;2023-04-24T01:23:58;11.40;99.90
20881;DHT22;10600;53.096;8.802;2023-04-24T01:24:58;11.40;99.90
20881;DHT22;10600;53.096;8.802;2023-04-24T01:25:59;11.40;99.90
20881;DHT22;10600;53.096;8.802;2023-04-24T01:27:00;11.40;99.90
20881;DHT22;10600;53.096;8.802;2023-04-24T01:28:01;11.40;99.90
20881;DHT22;10600;53.096;8.802;2023-04-24T01:29:02;11.40;99.90
20881;DHT22;10600;53.096;8.802;2023-04-24T01:30:03;11.40;99.90
20881;DHT22;10600;53.096;8.802;2023-04-24T01:31:05;11.40;99.90
20881;DHT22;10600;53.096;8.802;2023-04-24T01:32:05;11.40;99.90
20881;DHT22;10600;53.096;8.802;2023-04-24T01:33:06;11.40;99.90
20881;DHT22;10600;53.096;8.802;2023-04-24T01:34:07;11.40;99.90
20881;DHT22;10600;53.096;8.802;2023-04-24T01:35:08;11.40;99.90
20881;DHT22;10600;53.096;8.802;2023-04-24T01:36:10;11.50;99.90
20881;DHT22;10600;53.096;8.802;2023-04-24T01:37:11;11.50;99.90
20881;DHT22;10600;53.096;8.802;2023-04-24T01:38:12;11.50;99.90
20881;DHT22;10600;53.096;8.802;2023-04-24T01:39:13;11.50;99.90
20881;DHT22;10600;53.096;8.802;2023-04-24T01:40:14;11.50;99.90
20881;DHT22;10600;53.096;8.802;2023-04-24T01:41:15;11.50;99.90
20881;DHT22;10600;53.096;8.802;2023-04-24T01:42:16;11.50;99.90
20881;DHT22;10600;53.096;8.802;2023-04-24T01:43:17;11.50;99.90
20881;DHT22;10600;53.096;8.802;2023-04-24T01:44:18;11.60;99.90
20881;DHT22;10600;53.096;8.802;2023-04-24T01:45:19;11.60;99.90
20881;DHT22;10600;53.096;8.802;2023-04-24T01:46:20;11.60;99.90
20881;DHT22;10600;53.096;8.802;2023-04-24T01:47:20;11.60;99.90
20881;DHT22;10600;53.096;8.802;2023-04-24T01:48:22;11.60;99.90
20881;DHT22;10600;53.096;8.802;2023-04-24T01:49:22;11.60;99.90
20881;DHT22;10600;53.096;8.802;2023-04-24T01:50:23;11.60;99.90
20881;DHT22;10600;53.096;8.802;2023-04-24T01:51:24;11.60;99.90
20881;DHT22;10600;53.096;8.802;2023-04-24T01:52:25;11.60;99.90
20881;DHT22;10600;53.096;8.802;2023-04-24T01:53:25;11.60;99.90
20881;DHT22;10600;53.096;8.802;2023-04-24T01:54:26;11.60;99.90
20881;DHT22;10600;53.096;8.802;2023-04-24T01:55:27;11.60;99.90
20881;DHT22;10600;53.096;8.802;2023-04-24T01:56:33;11.50;99.90
20881;DHT22;10600;53.096;8.802;2023-04-24T01:57:36;11.50;99.90
20881;DHT22;10600;53.096;8.802;2023-04-24T01:58:37;11.50;99.90
20881;DHT22;10600;53.096;8.802;2023-04-24T01:59:37;11.50;99.90
20881;DHT22;10600;53.096;8.802;2023-04-24T02:00:38;11.50;99.90
20881;DHT22;10600;53.096;8.802;2023-04-24T02:01:39;11.50;99.90
20881;DHT22;10600;53.096;8.802;2023-04-24T02:02:40;11.50;99.90
20881;DHT22;10600;53.096;8.802;2023-04-24T02:03:41;11.50;99.90
20881;DHT22;10600;53.096;8.802;2023-04-24T02:04:42;11.50;99.90
20881;DHT22;10600;53.096;8.802;2023-04-24T02:05:44;11.50;99.90
20881;DHT22;10600;53.096;8.802;2023-04-24T02:06:45;11.50;99.90
20881;DHT22;10600;53.096;8.802;2023-04-24T02:07:46;11.50;99.90
20881;DHT22;10600;53.096;8.802;2023-04-24T02:08:46;11.50;99.90
20881;DHT22;10600;53.096;8.802;2023-04-24T02:09:47;11.50;99.90
20881;DHT22;10600;53.096;8.802;2023-04-24T02:10:48;11.60;99.90
20881;DHT22;10600;53.096;8.802;2023-04-24T02:11:48;11.50;99.90
20881;DHT22;10600;53.096;8.802;2023-04-24T02:12:49;11.60;99.90
20881;DHT22;10600;53.096;8.802;2023-04-24T02:13:50;11.60;99.90
20881;DHT22;10600;53.096;8.802;2023-04-24T02:14:51;11.60;99.90
20881;DHT22;10600;53.096;8.802;2023-04-24T02:15:52;11.60;99.90
20881;DHT22;10600;53.096;8.802;2023-04-24T02:16:53;11.60;99.90
20881;DHT22;10600;53.096;8.802;2023-04-24T02:17:53;11.60;99.90
20881;DHT22;10600;53.096;8.802;2023-04-24T02:18:54;11.60;99.90
20881;DHT22;10600;53.096;8.802;2023-04-24T02:19:55;11.60;99.90
20881;DHT22;10600;53.096;8.802;2023-04-24T02:20:55;11.60;99.90
20881;DHT22;10600;53.096;8.802;2023-04-24T02:21:56;11.60;99.90
20881;DHT22;10600;53.096;8.802;2023-04-24T02:22:57;11.60;99.90
20881;DHT22;10600;53.096;8.802;2023-04-24T02:23:57;11.70;99.90
20881;DHT22;10600;53.096;8.802;2023-04-24T02:24:58;11.60;99.90
20881;DHT22;10600;53.096;8.802;2023-04-24T02:25:59;11.60;99.90
20881;DHT22;10600;53.096;8.802;2023-04-24T02:26:59;11.60;99.90
20881;DHT22;10600;53.096;8.802;2023-04-24T02:28:00;11.70;99.90
20881;DHT22;10600;53.096;8.802;2023-04-24T02:29:01;11.70;99.90
20881;DHT22;10600;53.096;8.802;2023-04-24T02:30:02;11.60;99.90
20881;DHT22;10600;53.096;8.802;2023-04-24T02:31:03;11.70;99.90
20881;DHT22;10600;53.096;8.802;2023-04-24T02:32:04;11.70;99.90
20881;DHT22;10600;53.096;8.802;2023-04-24T02:33:04;11.70;99.90
20881;DHT22;10600;53.096;8.802;2023-04-24T02:34:05;11.70;99.90
20881;DHT22;10600;53.096;8.802;2023-04-24T02:35:06;11.70;99.90
20881;DHT22;10600;53.096;8.802;2023-04-24T02:36:07;11.70;99.90
20881;DHT22;10600;53.096;8.802;2023-04-24T02:37:07;11.70;99.90
20881;DHT22;10600;53.096;8.802;2023-04-24T02:38:08;11.60;99.90
20881;DHT22;10600;53.096;8.802;2023-04-24T02:39:08;11.60;99.90
20881;DHT22;10600;53.096;8.802;2023-04-24T02:40:09;11.60;99.90
20881;DHT22;10600;53.096;8.802;2023-04-24T02:41:10;11.50;99.90
20881;DHT22;10600;53.096;8.802;2023-04-24T02:42:11;11.50;99.90
20881;DHT22;10600;53.096;8.802;2023-04-24T02:43:11;11.50;99.90
20881;DHT22;10600;53.096;8.802;2023-04-24T02:44:12;11.40;99.90
20881;DHT22;10600;53.096;8.802;2023-04-24T02:45:13;11.40;99.90
20881;DHT22;10600;53.096;8.802;2023-04-24T02:46:13;11.40;99.90
20881;DHT22;10600;53.096;8.802;2023-04-24T02:47:14;11.40;99.90
20881;DHT22;10600;53.096;8.802;2023-04-24T02:48:14;11.30;99.90
20881;DHT22;10600;53.096;8.802;2023-04-24T02:49:15;11.30;99.90
20881;DHT22;10600;53.096;8.802;2023-04-24T02:50:16;11.30;99.90
20881;DHT22;10600;53.096;8.802;2023-04-24T02:51:16;11.30;99.90
20881;DHT22;10600;53.096;8.802;2023-04-24T02:52:17;11.30;99.90
20881;DHT22;10600;53.096;8.802;2023-04-24T02:53:18;11.20;99.90
20881;DHT22;10600;53.096;8.802;2023-04-24T02:54:18;11.20;99.90
20881;DHT22;10600;53.096;8.802;2023-04-24T02:55:19;11.20;99.90
20881;DHT22;10600;53.096;8.802;2023-04-24T02:56:20;11.20;99.90
20881;DHT22;10600;53.096;8.802;2023-04-24T02:57:21;11.20;99.90
20881;DHT22;10600;53.096;8.802;2023-04-24T02:58:21;11.20;99.90
20881;DHT22;10600;53.096;8.802;2023-04-24T02:59:22;11.20;99.90
20881;DHT22;10600;53.096;8.802;2023-04-24T03:00:23;11.10;99.90
20881;DHT22;10600;53.096;8.802;2023-04-24T03:01:23;11.20;99.90
20881;DHT22;10600;53.096;8.802;2023-04-24T03:02:24;11.20;99.90
20881;DHT22;10600;53.096;8.802;2023-04-24T03:03:25;11.20;99.90
20881;DHT22;10600;53.096;8.802;2023-04-24T03:04:26;11.10;99.90
20881;DHT22;10600;53.096;8.802;2023-04-24T03:05:26;11.10;99.90
20881;DHT22;10600;53.096;8.802;2023-04-24T03:06:27;11.10;99.90
20881;DHT22;10600;53.096;8.802;2023-04-24T03:07:28;11.10;99.90
20881;DHT22;10600;53.096;8.802;2023-04-24T03:08:29;11.10;99.90
20881;DHT22;10600;53.096;8.802;2023-04-24T03:09:29;11.10;99.90
20881;DHT22;10600;53.096;8.802;2023-04-24T03:10:30;11.10;99.90
20881;DHT22;10600;53.096;8.802;2023-04-24T03:11:31;11.10;99.90
20881;DHT22;10600;53.096;8.802;2023-04-24T03:12:31;11.10;99.90
20881;DHT22;10600;53.096;8.802;2023-04-24T03:13:32;11.10;99.90
20881;DHT22;10600;53.096;8.802;2023-04-24T03:14:32;11.10;99.90
20881;DHT22;10600;53.096;8.802;2023-04-24T03:15:33;11.10;99.90
20881;DHT22;10600;53.096;8.802;2023-04-24T03:16:34;11.10;99.90
20881;DHT22;10600;53.096;8.802;2023-04-24T03:17:34;11.10;99.90
20881;DHT22;10600;53.096;8.802;2023-04-24T03:18:35;11.20;99.90
20881;DHT22;10600;53.096;8.802;2023-04-24T03:19:36;11.20;99.90
20881;DHT22;10600;53.096;8.802;2023-04-24T03:20:36;11.20;99.90
20881;DHT22;10600;53.096;8.802;2023-04-24T03:21:38;11.20;99.90
20881;DHT22;10600;53.096;8.802;2023-04-24T03:22:40;11.20;99.90
20881;DHT22;10600;53.096;8.802;2023-04-24T03:23:41;11.20;99.90
20881;DHT22;10600;53.096;8.802;2023-04-24T03:24:42;11.20;99.90
20881;DHT22;10600;53.096;8.802;2023-04-24T03:25:42;11.20;99.90
20881;DHT22;10600;53.096;8.802;2023-04-24T03:26:43;11.20;99.90
20881;DHT22;10600;53.096;8.802;2023-04-24T03:27:43;11.30;99.90
20881;DHT22;10600;53.096;8.802;2023-04-24T03:28:45;11.20;99.90
20881;DHT22;10600;53.096;8.802;2023-04-24T03:29:45;11.30;99.90
20881;DHT22;10600;53.096;8.802;2023-04-24T03:30:46;11.30;99.90
20881;DHT22;10600;53.096;8.802;2023-04-24T03:31:46;11.30;99.90
20881;DHT22;10600;53.096;8.802;2023-04-24T03:32:47;11.30;99.90
20881;DHT22;10600;53.096;8.802;2023-04-24T03:33:48;11.30;99.90
20881;DHT22;10600;53.096;8.802;2023-04-24T03:34:49;11.30;99.90
20881;DHT22;10600;53.096;8.802;2023-04-24T03:35:50;11.30;99.90
20881;DHT22;10600;53.096;8.802;2023-04-24T03:36:50;11.30;99.90
20881;DHT22;10600;53.096;8.802;2023-04-24T03:37:52;11.30;99.90
20881;DHT22;10600;53.096;8.802;2023-04-24T03:38:53;11.30;99.90
20881;DHT22;10600;53.096;8.802;2023-04-24T03:39:53;11.30;99.90
20881;DHT22;10600;53.096;8.802;2023-04-24T03:40:54;11.30;99.90
20881;DHT22;10600;53.096;8.802;2023-04-24T03:41:55;11.30;99.90
20881;DHT22;10600;53.096;8.802;2023-04-24T03:42:56;11.30;99.90
20881;DHT22;10600;53.096;8.802;2023-04-24T03:43:56;11.30;99.90
20881;DHT22;10600;53.096;8.802;2023-04-24T03:44:57;11.30;99.90
20881;DHT22;10600;53.096;8.802;2023-04-24T03:45:58;11.30;99.90
20881;DHT22;10600;53.096;8.802;2023-04-24T03:46:58;11.30;99.90
20881;DHT22;10600;53.096;8.802;2023-04-24T03:47:59;11.30;99.90
20881;DHT22;10600;53.096;8.802;2023-04-24T03:48:59;11.30;99.90
20881;DHT22;10600;53.096;8.802;2023-04-24T03:50:00;11.40;99.90
20881;DHT22;10600;53.096;8.802;2023-04-24T03:51:01;11.40;99.90
20881;DHT22;10600;53.096;8.802;2023-04-24T03:52:02;11.40;99.90
20881;DHT22;10600;53.096;8.802;2023-04-24T03:53:02;11.30;99.90
20881;DHT22;10600;53.096;8.802;2023-04-24T03:54:04;11.40;99.90
20881;DHT22;10600;53.096;8.802;2023-04-24T03:55:04;11.40;99.90
20881;DHT22;10600;53.096;8.802;2023-04-24T03:56:06;11.40;99.90
20881;DHT22;10600;53.096;8.802;2023-04-24T03:57:07;11.40;99.90
20881;DHT22;10600;53.096;8.802;2023-04-24T03:58:08;11.40;99.90
20881;DHT22;10600;53.096;8.802;2023-04-24T03:59:08;11.40;99.90
20881;DHT22;10600;53.096;8.802;2023-04-24T04:00:09;11.40;99.90
20881;DHT22;10600;53.096;8.802;2023-04-24T04:01:10;11.40;99.90
20881;DHT22;10600;53.096;8.802;2023-04-24T04:02:12;11.40;99.90
20881;DHT22;10600;53.096;8.802;2023-04-24T04:03:12;11.40;99.90
20881;DHT22;10600;53.096;8.802;2023-04-24T04:04:14;11.40;99.90
20881;DHT22;10600;53.096;8.802;2023-04-24T04:05:15;11.40;99.90
20881;DHT22;10600;53.096;8.802;2023-04-24T04:06:16;11.40;99.90
20881;DHT22;10600;53.096;8.802;2023-04-24T04:07:16;11.30;99.90
20881;DHT22;10600;53.096;8.802;2023-04-24T04:08:17;11.40;99.90
20881;DHT22;10600;53.096;8.802;2023-04-24T04:09:18;11.40;99.90
20881;DHT22;10600;53.096;8.802;2023-04-24T04:10:19;11.30;99.90
20881;DHT22;10600;53.096;8.802;2023-04-24T04:11:19;11.40;99.90
20881;DHT22;10600;53.096;8.802;2023-04-24T04:12:20;11.40;99.90
20881;DHT22;10600;53.096;8.802;2023-04-24T04:13:21;11.40;99.90
20881;DHT22;10600;53.096;8.802;2023-04-24T04:14:22;11.30;99.90
20881;DHT22;10600;53.096;8.802;2023-04-24T04:15:23;11.40;99.90
20881;DHT22;10600;53.096;8.802;2023-04-24T04:16:24;11.30;99.90
20881;DHT22;10600;53.096;8.802;2023-04-24T04:17:24;11.30;99.90
20881;DHT22;10600;53.096;8.802;2023-04-24T04:18:25;11.40;99.90
20881;DHT22;10600;53.096;8.802;2023-04-24T04:19:26;11.30;99.90
20881;DHT22;10600;53.096;8.802;2023-04-24T04:20:27;11.30;99.90
20881;DHT22;10600;53.096;8.802;2023-04-24T04:21:27;11.40;99.90
20881;DHT22;10600;53.096;8.802;2023-04-24T04:22:28;11.40;99.90
20881;DHT22;10600;53.096;8.802;2023-04-24T04:23:28;11.40;99.90
20881;DHT22;10600;53.096;8.802;2023-04-24T04:24:30;11.40;99.90
20881;DHT22;10600;53.096;8.802;2023-04-24T04:25:33;11.30;99.90
20881;DHT22;10600;53.096;8.802;2023-04-24T04:26:33;11.30;99.90
20881;DHT22;10600;53.096;8.802;2023-04-24T04:27:35;11.30;99.90
20881;DHT22;10600;53.096;8.802;2023-04-24T04:28:36;11.40;99.90
20881;DHT22;10600;53.096;8.802;2023-04-24T04:29:38;11.30;99.90
20881;DHT22;10600;53.096;8.802;2023-04-24T04:30:40;11.30;99.90
20881;DHT22;10600;53.096;8.802;2023-04-24T04:31:41;11.30;99.90
20881;DHT22;10600;53.096;8.802;2023-04-24T04:32:42;11.30;99.90
20881;DHT22;10600;53.096;8.802;2023-04-24T04:33:49;11.30;99.90
20881;DHT22;10600;53.096;8.802;2023-04-24T04:34:49;11.30;99.90
20881;DHT22;10600;53.096;8.802;2023-04-24T04:35:53;11.30;99.90
20881;DHT22;10600;53.096;8.802;2023-04-24T04:36:57;11.30;99.90
20881;DHT22;10600;53.096;8.802;2023-04-24T04:38:01;11.40;99.90
20881;DHT22;10600;53.096;8.802;2023-04-24T04:39:02;11.30;99.90
20881;DHT22;10600;53.096;8.802;2023-04-24T04:40:07;11.40;99.90
20881;DHT22;10600;53.096;8.802;2023-04-24T04:41:11;11.40;99.90
20881;DHT22;10600;53.096;8.802;2023-04-24T04:42:12;11.30;99.90
20881;DHT22;10600;53.096;8.802;2023-04-24T04:43:14;11.40;99.90
20881;DHT22;10600;53.096;8.802;2023-04-24T04:44:15;11.30;99.90
20881;DHT22;10600;53.096;8.802;2023-04-24T04:45:16;11.40;99.90
20881;DHT22;10600;53.096;8.802;2023-04-24T04:46:17;11.40;99.90
20881;DHT22;10600;53.096;8.802;2023-04-24T04:47:18;11.40;99.90
20881;DHT22;10600;53.096;8.802;2023-04-24T04:48:20;11.40;99.90
20881;DHT22;10600;53.096;8.802;2023-04-24T04:49:20;11.40;99.90
20881;DHT22;10600;53.096;8.802;2023-04-24T04:50:22;11.40;99.90
20881;DHT22;10600;53.096;8.802;2023-04-24T04:51:23;11.40;99.90
20881;DHT22;10600;53.096;8.802;2023-04-24T04:52:23;11.40;99.90
20881;DHT22;10600;53.096;8.802;2023-04-24T04:53:26;11.40;99.90
20881;DHT22;10600;53.096;8.802;2023-04-24T04:54:27;11.40;99.90
20881;DHT22;10600;53.096;8.802;2023-04-24T04:55:27;11.50;99.90
20881;DHT22;10600;53.096;8.802;2023-04-24T04:56:28;11.50;99.90
20881;DHT22;10600;53.096;8.802;2023-04-24T04:57:29;11.40;99.90
20881;DHT22;10600;53.096;8.802;2023-04-24T04:58:30;11.50;99.90
20881;DHT22;10600;53.096;8.802;2023-04-24T04:59:31;11.50;99.90
20881;DHT22;10600;53.096;8.802;2023-04-24T05:00:32;11.40;99.90
20881;DHT22;10600;53.096;8.802;2023-04-24T05:01:36;11.50;99.90
20881;DHT22;10600;53.096;8.802;2023-04-24T05:02:36;11.50;99.90
20881;DHT22;10600;53.096;8.802;2023-04-24T05:03:37;11.50;99.90
20881;DHT22;10600;53.096;8.802;2023-04-24T05:04:38;11.50;99.90
20881;DHT22;10600;53.096;8.802;2023-04-24T05:05:38;11.50;99.90
20881;DHT22;10600;53.096;8.802;2023-04-24T05:06:40;11.50;99.90
20881;DHT22;10600;53.096;8.802;2023-04-24T05:07:41;11.50;99.90
20881;DHT22;10600;53.096;8.802;2023-04-24T05:08:42;11.50;99.90
20881;DHT22;10600;53.096;8.802;2023-04-24T05:09:43;11.50;99.90
20881;DHT22;10600;53.096;8.802;2023-04-24T05:10:45;11.50;99.90
20881;DHT22;10600;53.096;8.802;2023-04-24T05:11:45;11.50;99.90
20881;DHT22;10600;53.096;8.802;2023-04-24T05:12:46;11.50;99.90
20881;DHT22;10600;53.096;8.802;2023-04-24T05:13:47;11.50;99.90
20881;DHT22;10600;53.096;8.802;2023-04-24T05:14:48;11.50;99.90
20881;DHT22;10600;53.096;8.802;2023-04-24T05:15:49;11.60;99.90
20881;DHT22;10600;53.096;8.802;2023-04-24T05:16:49;11.60;99.90
20881;DHT22;10600;53.096;8.802;2023-04-24T05:17:50;11.60;99.90
20881;DHT22;10600;53.096;8.802;2023-04-24T05:18:51;11.60;99.90
20881;DHT22;10600;53.096;8.802;2023-04-24T05:19:51;11.60;99.90
20881;DHT22;10600;53.096;8.802;2023-04-24T05:20:52;11.60;99.90
20881;DHT22;10600;53.096;8.802;2023-04-24T05:21:53;11.60;99.90
20881;DHT22;10600;53.096;8.802;2023-04-24T05:22:53;11.60;99.90
20881;DHT22;10600;53.096;8.802;2023-04-24T05:23:54;11.60;99.90
20881;DHT22;10600;53.096;8.802;2023-04-24T05:24:55;11.70;99.90
20881;DHT22;10600;53.096;8.802;2023-04-24T05:25:56;11.70;99.90
20881;DHT22;10600;53.096;8.802;2023-04-24T05:26:56;11.70;99.90
20881;DHT22;10600;53.096;8.802;2023-04-24T05:27:58;11.70;99.90
20881;DHT22;10600;53.096;8.802;2023-04-24T05:28:59;11.70;99.90
20881;DHT22;10600;53.096;8.802;2023-04-24T05:30:00;11.70;99.90
20881;DHT22;10600;53.096;8.802;2023-04-24T05:31:01;11.70;99.90
20881;DHT22;10600;53.096;8.802;2023-04-24T05:32:02;11.70;99.90
20881;DHT22;10600;53.096;8.802;2023-04-24T05:33:03;11.80;99.90
20881;DHT22;10600;53.096;8.802;2023-04-24T05:34:04;11.80;99.90
20881;DHT22;10600;53.096;8.802;2023-04-24T05:35:05;11.80;99.90
20881;DHT22;10600;53.096;8.802;2023-04-24T05:36:06;11.80;99.90
20881;DHT22;10600;53.096;8.802;2023-04-24T05:37:07;11.80;99.90
20881;DHT22;10600;53.096;8.802;2023-04-24T05:38:10;11.80;99.90
20881;DHT22;10600;53.096;8.802;2023-04-24T05:39:10;11.90;99.90
20881;DHT22;10600;53.096;8.802;2023-04-24T05:40:11;11.80;99.90
20881;DHT22;10600;53.096;8.802;2023-04-24T05:41:12;11.90;99.90
20881;DHT22;10600;53.096;8.802;2023-04-24T05:42:12;11.90;99.90
20881;DHT22;10600;53.096;8.802;2023-04-24T05:43:13;11.90;99.90
20881;DHT22;10600;53.096;8.802;2023-04-24T05:44:14;11.90;99.90
20881;DHT22;10600;53.096;8.802;2023-04-24T05:45:15;11.90;99.90
20881;DHT22;10600;53.096;8.802;2023-04-24T05:46:17;11.90;99.90
20881;DHT22;10600;53.096;8.802;2023-04-24T05:47:17;11.90;99.90
20881;DHT22;10600;53.096;8.802;2023-04-24T05:48:18;11.80;99.90
20881;DHT22;10600;53.096;8.802;2023-04-24T05:49:19;11.80;99.90
20881;DHT22;10600;53.096;8.802;2023-04-24T05:50:19;11.80;99.90
20881;DHT22;10600;53.096;8.802;2023-04-24T05:51:20;11.80;99.90
20881;DHT22;10600;53.096;8.802;2023-04-24T05:52:20;11.80;99.90
20881;DHT22;10600;53.096;8.802;2023-04-24T05:53:21;11.80;99.90
20881;DHT22;10600;53.096;8.802;2023-04-24T05:54:22;11.80;99.90
20881;DHT22;10600;53.096;8.802;2023-04-24T05:55:22;11.80;99.90
20881;DHT22;10600;53.096;8.802;2023-04-24T05:56:23;11.80;99.90
20881;DHT22;10600;53.096;8.802;2023-04-24T05:57:24;11.90;99.90
20881;DHT22;10600;53.096;8.802;2023-04-24T05:58:25;11.90;99.90
20881;DHT22;10600;53.096;8.802;2023-04-24T05:59:26;11.90;99.90
20881;DHT22;10600;53.096;8.802;2023-04-24T06:00:26;11.90;99.90
20881;DHT22;10600;53.096;8.802;2023-04-24T06:01:27;11.90;99.90
20881;DHT22;10600;53.096;8.802;2023-04-24T06:02:28;12.00;99.90
20881;DHT22;10600;53.096;8.802;2023-04-24T06:03:32;12.00;99.90
20881;DHT22;10600;53.096;8.802;2023-04-24T06:04:33;12.00;99.90
20881;DHT22;10600;53.096;8.802;2023-04-24T06:05:34;12.00;99.90
20881;DHT22;10600;53.096;8.802;2023-04-24T06:06:35;12.00;99.90
20881;DHT22;10600;53.096;8.802;2023-04-24T06:07:36;12.00;99.90
20881;DHT22;10600;53.096;8.802;2023-04-24T06:08:37;12.00;99.90
20881;DHT22;10600;53.096;8.802;2023-04-24T06:09:38;12.00;99.90
20881;DHT22;10600;53.096;8.802;2023-04-24T06:10:38;12.00;99.90
20881;DHT22;10600;53.096;8.802;2023-04-24T06:11:39;12.00;99.90
20881;DHT22;10600;53.096;8.802;2023-04-24T06:12:39;12.00;99.90
20881;DHT22;10600;53.096;8.802;2023-04-24T06:13:40;12.00;99.90
20881;DHT22;10600;53.096;8.802;2023-04-24T06:14:41;12.00;99.90
20881;DHT22;10600;53.096;8.802;2023-04-24T06:15:42;12.10;99.90
20881;DHT22;10600;53.096;8.802;2023-04-24T06:16:43;12.10;99.90
20881;DHT22;10600;53.096;8.802;2023-04-24T06:17:44;12.10;99.90
20881;DHT22;10600;53.096;8.802;2023-04-24T06:18:44;12.10;99.90
20881;DHT22;10600;53.096;8.802;2023-04-24T06:19:47;12.10;99.90
20881;DHT22;10600;53.096;8.802;2023-04-24T06:20:47;12.10;99.90
20881;DHT22;10600;53.096;8.802;2023-04-24T06:21:48;12.10;99.90
20881;DHT22;10600;53.096;8.802;2023-04-24T06:22:49;12.10;99.90
20881;DHT22;10600;53.096;8.802;2023-04-24T06:23:49;12.10;99.90
20881;DHT22;10600;53.096;8.802;2023-04-24T06:24:50;12.10;99.90